sensor_id;sensor_type;location;lat;lon;timestamp;P1;durP1;ratioP1;P2;durP2;ratioP2
19434;SDS011;9853;50.848;4.108;2022-11-14T00:00:43;31.92;;;16.60;;
19434;SDS011;9853;50.848;4.108;2022-11-14T00:03:04;29.80;;;18.03;;
19434;SDS011;9853;50.848;4.108;2022-11-14T00:05:24;29.87;;;16.03;;
19434;SDS011;9853;50.848;4.108;2022-11-14T00:07:43;31.60;;;17.30;;
19434;SDS011;9853;50.848;4.108;2022-11-14T00:10:05;29.47;;;18.23;;
19434;SDS011;9853;50.848;4.108;2022-11-14T00:12:24;26.97;;;16.80;;
19434;SDS011;9853;50.848;4.108;2022-11-14T00:14:44;28.65;;;16.85;;
19434;SDS011;9853;50.848;4.108;2022-11-14T00:17:03;28.77;;;17.70;;
19434;SDS011;9853;50.848;4.108;2022-11-14T00:19:23;24.10;;;16.63;;
19434;SDS011;9853;50.848;4.108;2022-11-14T00:21:44;23.15;;;15.68;;
19434;SDS011;9853;50.848;4.108;2022-11-14T00:24:04;31.63;;;17.27;;
19434;SDS011;9853;50.848;4.108;2022-11-14T00:26:26;27.20;;;16.60;;
19434;SDS011;9853;50.848;4.108;2022-11-14T00:28:46;28.57;;;15.93;;
19434;SDS011;9853;50.848;4.108;2022-11-14T00:31:06;31.70;;;17.63;;
19434;SDS011;9853;50.848;4.108;2022-11-14T00:33:27;25.17;;;15.67;;
19434;SDS011;9853;50.848;4.108;2022-11-14T00:35:50;30.83;;;17.20;;
19434;SDS011;9853;50.848;4.108;2022-11-14T00:38:11;25.97;;;16.73;;
19434;SDS011;9853;50.848;4.108;2022-11-14T00:40:30;27.10;;;17.77;;
19434;SDS011;9853;50.848;4.108;2022-11-14T00:42:50;27.98;;;17.50;;
19434;SDS011;9853;50.848;4.108;2022-11-14T00:45:09;29.00;;;17.23;;
19434;SDS011;9853;50.848;4.108;2022-11-14T00:47:29;29.57;;;17.47;;
19434;SDS011;9853;50.848;4.108;2022-11-14T00:49:48;34.93;;;17.50;;
19434;SDS011;9853;50.848;4.108;2022-11-14T00:52:07;29.50;;;16.50;;
19434;SDS011;9853;50.848;4.108;2022-11-14T00:54:26;26.33;;;16.20;;
19434;SDS011;9853;50.848;4.108;2022-11-14T00:56:46;29.70;;;16.83;;
19434;SDS011;9853;50.848;4.108;2022-11-14T00:59:05;25.90;;;16.40;;
19434;SDS011;9853;50.848;4.108;2022-11-14T01:01:24;27.17;;;16.60;;
19434;SDS011;9853;50.848;4.108;2022-11-14T01:03:46;29.50;;;17.33;;
19434;SDS011;9853;50.848;4.108;2022-11-14T01:06:09;28.27;;;16.73;;
19434;SDS011;9853;50.848;4.108;2022-11-14T01:08:29;27.83;;;17.47;;
19434;SDS011;9853;50.848;4.108;2022-11-14T01:10:49;29.87;;;17.37;;
19434;SDS011;9853;50.848;4.108;2022-11-14T01:13:09;28.93;;;18.00;;
19434;SDS011;9853;50.848;4.108;2022-11-14T01:15:29;30.23;;;18.20;;
19434;SDS011;9853;50.848;4.108;2022-11-14T01:17:48;34.47;;;17.53;;
19434;SDS011;9853;50.848;4.108;2022-11-14T01:20:07;25.90;;;17.00;;
19434;SDS011;9853;50.848;4.108;2022-11-14T01:22:28;29.20;;;17.20;;
19434;SDS011;9853;50.848;4.108;2022-11-14T01:24:47;28.27;;;16.40;;
19434;SDS011;9853;50.848;4.108;2022-11-14T01:27:06;29.83;;;17.27;;
19434;SDS011;9853;50.848;4.108;2022-11-14T01:29:25;28.97;;;17.43;;
19434;SDS011;9853;50.848;4.108;2022-11-14T01:31:45;28.67;;;16.97;;
19434;SDS011;9853;50.848;4.108;2022-11-14T01:34:04;30.87;;;17.47;;
19434;SDS011;9853;50.848;4.108;2022-11-14T01:36:24;29.23;;;17.47;;
19434;SDS011;9853;50.848;4.108;2022-11-14T01:38:43;32.47;;;17.57;;
19434;SDS011;9853;50.848;4.108;2022-11-14T01:41:03;32.50;;;16.50;;
19434;SDS011;9853;50.848;4.108;2022-11-14T01:43:23;26.53;;;16.47;;
19434;SDS011;9853;50.848;4.108;2022-11-14T01:45:52;30.70;;;17.00;;
19434;SDS011;9853;50.848;4.108;2022-11-14T01:48:17;30.27;;;16.33;;
19434;SDS011;9853;50.848;4.108;2022-11-14T01:50:40;29.03;;;16.37;;
19434;SDS011;9853;50.848;4.108;2022-11-14T01:52:59;25.47;;;15.60;;
19434;SDS011;9853;50.848;4.108;2022-11-14T01:55:18;26.97;;;16.10;;
19434;SDS011;9853;50.848;4.108;2022-11-14T01:57:38;28.90;;;16.97;;
19434;SDS011;9853;50.848;4.108;2022-11-14T02:00:04;28.17;;;17.37;;
19434;SDS011;9853;50.848;4.108;2022-11-14T02:02:26;30.07;;;17.30;;
19434;SDS011;9853;50.848;4.108;2022-11-14T02:04:56;25.47;;;15.67;;
19434;SDS011;9853;50.848;4.108;2022-11-14T02:07:20;29.70;;;16.63;;
19434;SDS011;9853;50.848;4.108;2022-11-14T02:09:43;29.43;;;16.07;;
19434;SDS011;9853;50.848;4.108;2022-11-14T02:12:05;24.43;;;15.17;;
19434;SDS011;9853;50.848;4.108;2022-11-14T02:14:27;26.30;;;15.37;;
19434;SDS011;9853;50.848;4.108;2022-11-14T02:16:47;25.70;;;14.80;;
19434;SDS011;9853;50.848;4.108;2022-11-14T02:19:07;25.63;;;13.97;;
19434;SDS011;9853;50.848;4.108;2022-11-14T02:21:27;24.70;;;14.33;;
19434;SDS011;9853;50.848;4.108;2022-11-14T02:23:46;25.40;;;14.87;;
19434;SDS011;9853;50.848;4.108;2022-11-14T02:26:05;24.10;;;14.50;;
19434;SDS011;9853;50.848;4.108;2022-11-14T02:28:24;27.13;;;14.37;;
19434;SDS011;9853;50.848;4.108;2022-11-14T02:30:44;21.90;;;13.80;;
19434;SDS011;9853;50.848;4.108;2022-11-14T02:33:03;26.57;;;14.07;;
19434;SDS011;9853;50.848;4.108;2022-11-14T02:35:23;22.37;;;13.80;;
19434;SDS011;9853;50.848;4.108;2022-11-14T02:37:42;23.23;;;14.27;;
19434;SDS011;9853;50.848;4.108;2022-11-14T02:40:01;25.40;;;13.93;;
19434;SDS011;9853;50.848;4.108;2022-11-14T02:42:21;21.50;;;13.37;;
19434;SDS011;9853;50.848;4.108;2022-11-14T02:44:41;21.47;;;13.40;;
19434;SDS011;9853;50.848;4.108;2022-11-14T02:47:00;23.70;;;14.27;;
19434;SDS011;9853;50.848;4.108;2022-11-14T02:49:20;24.70;;;14.77;;
19434;SDS011;9853;50.848;4.108;2022-11-14T02:51:39;24.60;;;14.20;;
19434;SDS011;9853;50.848;4.108;2022-11-14T02:53:59;23.23;;;13.70;;
19434;SDS011;9853;50.848;4.108;2022-11-14T02:56:18;23.17;;;13.67;;
19434;SDS011;9853;50.848;4.108;2022-11-14T02:58:37;18.53;;;12.93;;
19434;SDS011;9853;50.848;4.108;2022-11-14T03:00:56;23.57;;;13.30;;
19434;SDS011;9853;50.848;4.108;2022-11-14T03:03:15;24.67;;;13.03;;
19434;SDS011;9853;50.848;4.108;2022-11-14T03:05:34;20.00;;;12.43;;
19434;SDS011;9853;50.848;4.108;2022-11-14T03:07:54;21.63;;;13.07;;
19434;SDS011;9853;50.848;4.108;2022-11-14T03:10:13;21.60;;;12.70;;
19434;SDS011;9853;50.848;4.108;2022-11-14T03:12:33;21.97;;;13.23;;
19434;SDS011;9853;50.848;4.108;2022-11-14T03:14:53;23.90;;;12.90;;
19434;SDS011;9853;50.848;4.108;2022-11-14T03:17:12;19.87;;;11.67;;
19434;SDS011;9853;50.848;4.108;2022-11-14T03:19:31;25.83;;;13.40;;
19434;SDS011;9853;50.848;4.108;2022-11-14T03:21:50;24.83;;;12.90;;
19434;SDS011;9853;50.848;4.108;2022-11-14T03:24:09;20.93;;;12.03;;
19434;SDS011;9853;50.848;4.108;2022-11-14T03:26:28;21.30;;;12.63;;
19434;SDS011;9853;50.848;4.108;2022-11-14T03:28:48;20.00;;;12.53;;
19434;SDS011;9853;50.848;4.108;2022-11-14T03:31:08;23.17;;;12.60;;
19434;SDS011;9853;50.848;4.108;2022-11-14T03:33:29;21.87;;;13.03;;
19434;SDS011;9853;50.848;4.108;2022-11-14T03:35:49;27.93;;;13.50;;
19434;SDS011;9853;50.848;4.108;2022-11-14T03:38:09;23.37;;;13.03;;
19434;SDS011;9853;50.848;4.108;2022-11-14T03:40:28;23.83;;;11.80;;
19434;SDS011;9853;50.848;4.108;2022-11-14T03:42:47;22.27;;;13.03;;
19434;SDS011;9853;50.848;4.108;2022-11-14T03:45:06;24.97;;;12.70;;
19434;SDS011;9853;50.848;4.108;2022-11-14T03:47:27;19.87;;;12.17;;
19434;SDS011;9853;50.848;4.108;2022-11-14T03:49:46;19.53;;;12.43;;
19434;SDS011;9853;50.848;4.108;2022-11-14T03:52:06;23.97;;;12.77;;
19434;SDS011;9853;50.848;4.108;2022-11-14T03:54:25;22.40;;;12.07;;
19434;SDS011;9853;50.848;4.108;2022-11-14T03:56:44;24.87;;;11.73;;
19434;SDS011;9853;50.848;4.108;2022-11-14T03:59:04;20.53;;;11.03;;
19434;SDS011;9853;50.848;4.108;2022-11-14T04:01:23;24.17;;;11.00;;
19434;SDS011;9853;50.848;4.108;2022-11-14T04:03:42;22.80;;;11.30;;
19434;SDS011;9853;50.848;4.108;2022-11-14T04:06:01;21.33;;;11.00;;
19434;SDS011;9853;50.848;4.108;2022-11-14T04:08:21;24.10;;;11.63;;
19434;SDS011;9853;50.848;4.108;2022-11-14T04:10:40;22.23;;;10.93;;
19434;SDS011;9853;50.848;4.108;2022-11-14T04:13:00;21.70;;;11.20;;
19434;SDS011;9853;50.848;4.108;2022-11-14T04:15:21;22.70;;;10.83;;
19434;SDS011;9853;50.848;4.108;2022-11-14T04:17:40;19.27;;;10.37;;
19434;SDS011;9853;50.848;4.108;2022-11-14T04:20:00;19.80;;;9.90;;
19434;SDS011;9853;50.848;4.108;2022-11-14T04:22:19;19.60;;;10.30;;
19434;SDS011;9853;50.848;4.108;2022-11-14T04:24:38;19.93;;;10.27;;
19434;SDS011;9853;50.848;4.108;2022-11-14T04:26:57;18.80;;;9.77;;
19434;SDS011;9853;50.848;4.108;2022-11-14T04:29:16;17.37;;;10.00;;
19434;SDS011;9853;50.848;4.108;2022-11-14T04:31:35;20.70;;;9.93;;
19434;SDS011;9853;50.848;4.108;2022-11-14T04:33:54;16.33;;;9.80;;
19434;SDS011;9853;50.848;4.108;2022-11-14T04:36:13;20.90;;;10.40;;
19434;SDS011;9853;50.848;4.108;2022-11-14T04:38:32;14.70;;;9.40;;
19434;SDS011;9853;50.848;4.108;2022-11-14T04:40:51;16.23;;;9.77;;
19434;SDS011;9853;50.848;4.108;2022-11-14T04:43:11;18.40;;;10.23;;
19434;SDS011;9853;50.848;4.108;2022-11-14T04:45:30;20.20;;;11.03;;
19434;SDS011;9853;50.848;4.108;2022-11-14T04:47:49;14.30;;;9.57;;
19434;SDS011;9853;50.848;4.108;2022-11-14T04:50:09;19.90;;;9.90;;
19434;SDS011;9853;50.848;4.108;2022-11-14T04:52:28;16.13;;;10.03;;
19434;SDS011;9853;50.848;4.108;2022-11-14T04:54:47;20.43;;;10.07;;
19434;SDS011;9853;50.848;4.108;2022-11-14T04:57:06;18.70;;;9.73;;
19434;SDS011;9853;50.848;4.108;2022-11-14T04:59:26;17.57;;;10.00;;
19434;SDS011;9853;50.848;4.108;2022-11-14T05:01:46;20.23;;;10.67;;
19434;SDS011;9853;50.848;4.108;2022-11-14T05:04:04;20.63;;;10.30;;
19434;SDS011;9853;50.848;4.108;2022-11-14T05:06:24;18.50;;;10.50;;
19434;SDS011;9853;50.848;4.108;2022-11-14T05:08:43;18.67;;;10.57;;
19434;SDS011;9853;50.848;4.108;2022-11-14T05:11:02;18.50;;;9.63;;
19434;SDS011;9853;50.848;4.108;2022-11-14T05:13:22;18.27;;;10.00;;
19434;SDS011;9853;50.848;4.108;2022-11-14T05:15:41;20.97;;;10.67;;
19434;SDS011;9853;50.848;4.108;2022-11-14T05:18:00;19.47;;;10.50;;
19434;SDS011;9853;50.848;4.108;2022-11-14T05:20:20;16.00;;;10.30;;
19434;SDS011;9853;50.848;4.108;2022-11-14T05:22:39;15.97;;;10.33;;
19434;SDS011;9853;50.848;4.108;2022-11-14T05:24:58;17.37;;;10.73;;
19434;SDS011;9853;50.848;4.108;2022-11-14T05:27:17;21.23;;;10.60;;
19434;SDS011;9853;50.848;4.108;2022-11-14T05:29:36;16.13;;;10.10;;
19434;SDS011;9853;50.848;4.108;2022-11-14T05:31:55;19.07;;;10.67;;
19434;SDS011;9853;50.848;4.108;2022-11-14T05:34:15;15.40;;;10.23;;
19434;SDS011;9853;50.848;4.108;2022-11-14T05:36:34;21.03;;;10.70;;
19434;SDS011;9853;50.848;4.108;2022-11-14T05:38:53;18.53;;;10.27;;
19434;SDS011;9853;50.848;4.108;2022-11-14T05:41:14;17.87;;;10.17;;
19434;SDS011;9853;50.848;4.108;2022-11-14T05:43:35;20.27;;;10.53;;
19434;SDS011;9853;50.848;4.108;2022-11-14T05:45:58;16.60;;;10.03;;
19434;SDS011;9853;50.848;4.108;2022-11-14T05:48:22;20.77;;;10.37;;
19434;SDS011;9853;50.848;4.108;2022-11-14T05:50:44;17.87;;;9.70;;
19434;SDS011;9853;50.848;4.108;2022-11-14T05:53:03;15.13;;;9.27;;
19434;SDS011;9853;50.848;4.108;2022-11-14T05:55:22;20.90;;;9.67;;
19434;SDS011;9853;50.848;4.108;2022-11-14T05:57:41;19.30;;;9.97;;
19434;SDS011;9853;50.848;4.108;2022-11-14T06:00:00;24.40;;;10.27;;
19434;SDS011;9853;50.848;4.108;2022-11-14T06:02:20;16.93;;;10.00;;
19434;SDS011;9853;50.848;4.108;2022-11-14T06:04:39;17.30;;;9.80;;
19434;SDS011;9853;50.848;4.108;2022-11-14T06:06:58;17.30;;;10.47;;
19434;SDS011;9853;50.848;4.108;2022-11-14T06:09:18;20.23;;;9.40;;
19434;SDS011;9853;50.848;4.108;2022-11-14T06:11:37;14.87;;;9.73;;
19434;SDS011;9853;50.848;4.108;2022-11-14T06:13:56;15.93;;;9.30;;
19434;SDS011;9853;50.848;4.108;2022-11-14T06:16:16;17.70;;;9.07;;
19434;SDS011;9853;50.848;4.108;2022-11-14T06:18:36;16.43;;;9.57;;
19434;SDS011;9853;50.848;4.108;2022-11-14T06:20:59;16.90;;;9.93;;
19434;SDS011;9853;50.848;4.108;2022-11-14T06:23:20;18.53;;;10.27;;
19434;SDS011;9853;50.848;4.108;2022-11-14T06:25:39;18.90;;;9.47;;
19434;SDS011;9853;50.848;4.108;2022-11-14T06:27:58;16.13;;;9.57;;
19434;SDS011;9853;50.848;4.108;2022-11-14T06:30:17;17.40;;;9.17;;
19434;SDS011;9853;50.848;4.108;2022-11-14T06:32:36;14.23;;;9.00;;
19434;SDS011;9853;50.848;4.108;2022-11-14T06:34:55;16.70;;;9.90;;
19434;SDS011;9853;50.848;4.108;2022-11-14T06:37:14;16.37;;;9.13;;
19434;SDS011;9853;50.848;4.108;2022-11-14T06:39:33;16.50;;;8.87;;
19434;SDS011;9853;50.848;4.108;2022-11-14T06:41:53;18.93;;;9.37;;
19434;SDS011;9853;50.848;4.108;2022-11-14T06:44:12;20.63;;;9.43;;
19434;SDS011;9853;50.848;4.108;2022-11-14T06:46:32;22.87;;;9.67;;
19434;SDS011;9853;50.848;4.108;2022-11-14T06:48:51;25.17;;;10.30;;
19434;SDS011;9853;50.848;4.108;2022-11-14T06:51:11;16.90;;;9.27;;
19434;SDS011;9853;50.848;4.108;2022-11-14T06:53:32;14.10;;;8.67;;
19434;SDS011;9853;50.848;4.108;2022-11-14T06:55:54;18.87;;;9.30;;
19434;SDS011;9853;50.848;4.108;2022-11-14T06:58:29;19.77;;;9.27;;
19434;SDS011;9853;50.848;4.108;2022-11-14T07:00:49;25.77;;;12.77;;
19434;SDS011;9853;50.848;4.108;2022-11-14T07:03:08;44.67;;;26.57;;
19434;SDS011;9853;50.848;4.108;2022-11-14T07:05:27;20.43;;;13.13;;
19434;SDS011;9853;50.848;4.108;2022-11-14T07:07:47;22.17;;;12.93;;
19434;SDS011;9853;50.848;4.108;2022-11-14T07:10:06;32.20;;;23.33;;
19434;SDS011;9853;50.848;4.108;2022-11-14T07:12:25;21.60;;;13.77;;
19434;SDS011;9853;50.848;4.108;2022-11-14T07:14:47;18.43;;;9.37;;
19434;SDS011;9853;50.848;4.108;2022-11-14T07:17:06;16.80;;;8.80;;
19434;SDS011;9853;50.848;4.108;2022-11-14T07:19:25;18.23;;;9.20;;
19434;SDS011;9853;50.848;4.108;2022-11-14T07:21:44;18.53;;;9.67;;
19434;SDS011;9853;50.848;4.108;2022-11-14T07:24:04;26.90;;;14.63;;
19434;SDS011;9853;50.848;4.108;2022-11-14T07:26:24;23.80;;;11.83;;
19434;SDS011;9853;50.848;4.108;2022-11-14T07:28:44;21.90;;;11.47;;
19434;SDS011;9853;50.848;4.108;2022-11-14T07:31:04;20.23;;;10.87;;
19434;SDS011;9853;50.848;4.108;2022-11-14T07:33:24;16.73;;;10.10;;
19434;SDS011;9853;50.848;4.108;2022-11-14T07:35:50;16.60;;;10.30;;
19434;SDS011;9853;50.848;4.108;2022-11-14T07:38:09;18.20;;;11.43;;
19434;SDS011;9853;50.848;4.108;2022-11-14T07:40:29;17.57;;;11.37;;
19434;SDS011;9853;50.848;4.108;2022-11-14T07:42:48;18.43;;;11.50;;
19434;SDS011;9853;50.848;4.108;2022-11-14T07:45:10;16.47;;;10.37;;
19434;SDS011;9853;50.848;4.108;2022-11-14T07:47:29;21.13;;;11.50;;
19434;SDS011;9853;50.848;4.108;2022-11-14T07:49:48;22.13;;;10.60;;
19434;SDS011;9853;50.848;4.108;2022-11-14T07:52:07;19.23;;;10.80;;
19434;SDS011;9853;50.848;4.108;2022-11-14T07:54:27;18.40;;;9.87;;
19434;SDS011;9853;50.848;4.108;2022-11-14T07:56:46;13.33;;;8.70;;
19434;SDS011;9853;50.848;4.108;2022-11-14T07:59:05;16.90;;;8.90;;
19434;SDS011;9853;50.848;4.108;2022-11-14T08:01:25;13.80;;;8.90;;
19434;SDS011;9853;50.848;4.108;2022-11-14T08:03:44;12.70;;;7.40;;
19434;SDS011;9853;50.848;4.108;2022-11-14T08:06:05;12.30;;;7.50;;
19434;SDS011;9853;50.848;4.108;2022-11-14T08:08:25;16.03;;;8.30;;
19434;SDS011;9853;50.848;4.108;2022-11-14T08:10:44;11.50;;;7.47;;
19434;SDS011;9853;50.848;4.108;2022-11-14T08:13:04;12.73;;;7.75;;
19434;SDS011;9853;50.848;4.108;2022-11-14T08:15:25;14.07;;;7.47;;
19434;SDS011;9853;50.848;4.108;2022-11-14T08:17:45;11.23;;;6.93;;
19434;SDS011;9853;50.848;4.108;2022-11-14T08:20:07;14.90;;;7.45;;
19434;SDS011;9853;50.848;4.108;2022-11-14T08:22:27;14.02;;;7.68;;
19434;SDS011;9853;50.848;4.108;2022-11-14T08:24:46;13.07;;;7.15;;
19434;SDS011;9853;50.848;4.108;2022-11-14T08:27:05;13.70;;;7.28;;
19434;SDS011;9853;50.848;4.108;2022-11-14T08:29:24;16.48;;;7.78;;
19434;SDS011;9853;50.848;4.108;2022-11-14T08:31:44;12.55;;;7.40;;
19434;SDS011;9853;50.848;4.108;2022-11-14T08:34:04;16.85;;;7.65;;
19434;SDS011;9853;50.848;4.108;2022-11-14T08:36:24;11.75;;;7.38;;
19434;SDS011;9853;50.848;4.108;2022-11-14T08:38:43;12.27;;;7.33;;
19434;SDS011;9853;50.848;4.108;2022-11-14T08:41:03;13.32;;;7.35;;
19434;SDS011;9853;50.848;4.108;2022-11-14T08:43:22;15.73;;;7.87;;
19434;SDS011;9853;50.848;4.108;2022-11-14T08:45:41;15.07;;;7.60;;
19434;SDS011;9853;50.848;4.108;2022-11-14T08:48:00;15.50;;;8.53;;
19434;SDS011;9853;50.848;4.108;2022-11-14T08:50:19;18.33;;;9.38;;
19434;SDS011;9853;50.848;4.108;2022-11-14T08:52:38;19.88;;;9.05;;
19434;SDS011;9853;50.848;4.108;2022-11-14T08:54:57;21.87;;;9.17;;
19434;SDS011;9853;50.848;4.108;2022-11-14T08:57:17;23.07;;;10.13;;
19434;SDS011;9853;50.848;4.108;2022-11-14T08:59:36;15.93;;;9.33;;
19434;SDS011;9853;50.848;4.108;2022-11-14T09:01:55;19.87;;;9.30;;
19434;SDS011;9853;50.848;4.108;2022-11-14T09:04:14;17.03;;;9.50;;
19434;SDS011;9853;50.848;4.108;2022-11-14T09:06:33;21.75;;;9.65;;
19434;SDS011;9853;50.848;4.108;2022-11-14T09:08:52;18.05;;;9.35;;
19434;SDS011;9853;50.848;4.108;2022-11-14T09:11:12;15.50;;;9.20;;
19434;SDS011;9853;50.848;4.108;2022-11-14T09:13:34;19.80;;;9.80;;
19434;SDS011;9853;50.848;4.108;2022-11-14T09:15:53;16.40;;;8.85;;
19434;SDS011;9853;50.848;4.108;2022-11-14T09:18:12;16.00;;;9.63;;
19434;SDS011;9853;50.848;4.108;2022-11-14T09:20:32;18.85;;;9.82;;
19434;SDS011;9853;50.848;4.108;2022-11-14T09:22:52;19.48;;;10.48;;
19434;SDS011;9853;50.848;4.108;2022-11-14T09:25:11;20.40;;;9.85;;
19434;SDS011;9853;50.848;4.108;2022-11-14T09:27:30;21.38;;;10.13;;
19434;SDS011;9853;50.848;4.108;2022-11-14T09:29:49;20.13;;;10.30;;
19434;SDS011;9853;50.848;4.108;2022-11-14T09:32:09;24.30;;;10.23;;
19434;SDS011;9853;50.848;4.108;2022-11-14T09:34:28;23.53;;;10.60;;
19434;SDS011;9853;50.848;4.108;2022-11-14T09:36:47;18.35;;;10.35;;
19434;SDS011;9853;50.848;4.108;2022-11-14T09:39:06;21.40;;;10.60;;
19434;SDS011;9853;50.848;4.108;2022-11-14T09:41:36;20.93;;;10.80;;
19434;SDS011;9853;50.848;4.108;2022-11-14T09:47:17;18.93;;;10.90;;
19434;SDS011;9853;50.848;4.108;2022-11-14T09:49:44;24.00;;;10.70;;
19434;SDS011;9853;50.848;4.108;2022-11-14T09:54:35;22.03;;;11.93;;
19434;SDS011;9853;50.848;4.108;2022-11-14T09:57:02;21.90;;;11.37;;
19434;SDS011;9853;50.848;4.108;2022-11-14T09:59:21;23.23;;;12.33;;
19434;SDS011;9853;50.848;4.108;2022-11-14T10:02:01;21.80;;;12.13;;
19434;SDS011;9853;50.848;4.108;2022-11-14T10:04:49;20.07;;;12.70;;
19434;SDS011;9853;50.848;4.108;2022-11-14T10:12:21;24.37;;;13.00;;
19434;SDS011;9853;50.848;4.108;2022-11-14T10:15:04;34.13;;;13.83;;
19434;SDS011;9853;50.848;4.108;2022-11-14T10:17:35;20.40;;;12.27;;
19434;SDS011;9853;50.848;4.108;2022-11-14T10:20:13;19.03;;;12.20;;
19434;SDS011;9853;50.848;4.108;2022-11-14T10:25:24;26.87;;;13.20;;
19434;SDS011;9853;50.848;4.108;2022-11-14T10:27:57;22.10;;;13.00;;
19434;SDS011;9853;50.848;4.108;2022-11-14T10:30:38;21.87;;;13.90;;
19434;SDS011;9853;50.848;4.108;2022-11-14T10:40:43;20.20;;;12.00;;
19434;SDS011;9853;50.848;4.108;2022-11-14T10:45:49;23.63;;;13.67;;
19434;SDS011;9853;50.848;4.108;2022-11-14T10:48:12;23.30;;;13.83;;
19434;SDS011;9853;50.848;4.108;2022-11-14T10:50:54;24.30;;;13.67;;
19434;SDS011;9853;50.848;4.108;2022-11-14T10:53:21;26.53;;;14.07;;
19434;SDS011;9853;50.848;4.108;2022-11-14T10:55:43;27.43;;;13.30;;
19434;SDS011;9853;50.848;4.108;2022-11-14T10:58:08;22.43;;;14.37;;
19434;SDS011;9853;50.848;4.108;2022-11-14T11:00:30;30.90;;;14.00;;
19434;SDS011;9853;50.848;4.108;2022-11-14T11:02:52;26.60;;;14.23;;
19434;SDS011;9853;50.848;4.108;2022-11-14T11:05:14;28.40;;;13.77;;
19434;SDS011;9853;50.848;4.108;2022-11-14T11:07:34;22.27;;;12.83;;
19434;SDS011;9853;50.848;4.108;2022-11-14T11:10:22;22.67;;;13.50;;
19434;SDS011;9853;50.848;4.108;2022-11-14T11:13:00;23.93;;;14.00;;
19434;SDS011;9853;50.848;4.108;2022-11-14T11:15:27;24.23;;;14.73;;
19434;SDS011;9853;50.848;4.108;2022-11-14T11:17:58;25.63;;;15.03;;
19434;SDS011;9853;50.848;4.108;2022-11-14T11:23:00;24.63;;;14.23;;
19434;SDS011;9853;50.848;4.108;2022-11-14T11:25:29;24.00;;;14.00;;
19434;SDS011;9853;50.848;4.108;2022-11-14T11:28:02;25.93;;;15.00;;
19434;SDS011;9853;50.848;4.108;2022-11-14T11:30:25;23.47;;;15.13;;
19434;SDS011;9853;50.848;4.108;2022-11-14T11:32:45;26.60;;;15.23;;
19434;SDS011;9853;50.848;4.108;2022-11-14T11:35:05;25.80;;;15.07;;
19434;SDS011;9853;50.848;4.108;2022-11-14T11:37:37;30.13;;;15.30;;
19434;SDS011;9853;50.848;4.108;2022-11-14T11:40:02;24.33;;;15.27;;
19434;SDS011;9853;50.848;4.108;2022-11-14T11:42:34;26.33;;;14.87;;
19434;SDS011;9853;50.848;4.108;2022-11-14T11:44:58;33.47;;;14.87;;
19434;SDS011;9853;50.848;4.108;2022-11-14T11:47:19;28.77;;;15.13;;
19434;SDS011;9853;50.848;4.108;2022-11-14T11:49:47;30.43;;;15.23;;
19434;SDS011;9853;50.848;4.108;2022-11-14T11:52:12;30.23;;;16.03;;
19434;SDS011;9853;50.848;4.108;2022-11-14T11:54:55;29.37;;;16.57;;
19434;SDS011;9853;50.848;4.108;2022-11-14T11:57:33;34.13;;;15.97;;
19434;SDS011;9853;50.848;4.108;2022-11-14T12:00:12;28.93;;;17.60;;
19434;SDS011;9853;50.848;4.108;2022-11-14T12:02:36;29.57;;;16.70;;
19434;SDS011;9853;50.848;4.108;2022-11-14T12:05:02;30.10;;;15.73;;
19434;SDS011;9853;50.848;4.108;2022-11-14T12:09:48;27.60;;;16.17;;
19434;SDS011;9853;50.848;4.108;2022-11-14T12:12:13;29.57;;;16.47;;
19434;SDS011;9853;50.848;4.108;2022-11-14T12:15:06;28.13;;;14.73;;
19434;SDS011;9853;50.848;4.108;2022-11-14T12:26:39;31.27;;;16.90;;
19434;SDS011;9853;50.848;4.108;2022-11-14T12:31:38;31.50;;;17.37;;
19434;SDS011;9853;50.848;4.108;2022-11-14T12:34:02;33.27;;;17.43;;
19434;SDS011;9853;50.848;4.108;2022-11-14T12:36:28;30.60;;;17.77;;
19434;SDS011;9853;50.848;4.108;2022-11-14T12:38:50;31.70;;;17.00;;
19434;SDS011;9853;50.848;4.108;2022-11-14T12:41:11;31.80;;;17.27;;
19434;SDS011;9853;50.848;4.108;2022-11-14T12:43:42;28.67;;;17.70;;
19434;SDS011;9853;50.848;4.108;2022-11-14T12:46:06;29.83;;;17.07;;
19434;SDS011;9853;50.848;4.108;2022-11-14T12:48:29;32.40;;;17.33;;
19434;SDS011;9853;50.848;4.108;2022-11-14T12:50:51;27.87;;;16.77;;
19434;SDS011;9853;50.848;4.108;2022-11-14T12:55:57;31.40;;;16.73;;
19434;SDS011;9853;50.848;4.108;2022-11-14T12:59:08;31.70;;;17.67;;
19434;SDS011;9853;50.848;4.108;2022-11-14T13:04:17;28.67;;;16.80;;
19434;SDS011;9853;50.848;4.108;2022-11-14T13:07:06;31.07;;;17.07;;
19434;SDS011;9853;50.848;4.108;2022-11-14T13:12:34;28.97;;;16.57;;
19434;SDS011;9853;50.848;4.108;2022-11-14T13:21:02;27.20;;;16.73;;
19434;SDS011;9853;50.848;4.108;2022-11-14T13:36:00;31.60;;;17.03;;
19434;SDS011;9853;50.848;4.108;2022-11-14T13:41:29;31.73;;;18.27;;
19434;SDS011;9853;50.848;4.108;2022-11-14T13:44:01;27.27;;;17.27;;
19434;SDS011;9853;50.848;4.108;2022-11-14T13:52:17;27.83;;;16.70;;
19434;SDS011;9853;50.848;4.108;2022-11-14T13:54:49;27.40;;;17.00;;
19434;SDS011;9853;50.848;4.108;2022-11-14T13:57:26;29.07;;;16.43;;
19434;SDS011;9853;50.848;4.108;2022-11-14T14:10:42;26.33;;;15.77;;
19434;SDS011;9853;50.848;4.108;2022-11-14T14:13:33;27.07;;;15.97;;
19434;SDS011;9853;50.848;4.108;2022-11-14T14:19:07;29.50;;;15.93;;
19434;SDS011;9853;50.848;4.108;2022-11-14T14:30:14;30.23;;;16.37;;
19434;SDS011;9853;50.848;4.108;2022-11-14T14:32:38;29.13;;;17.13;;
19434;SDS011;9853;50.848;4.108;2022-11-14T14:35:27;27.13;;;16.03;;
19434;SDS011;9853;50.848;4.108;2022-11-14T14:37:52;31.00;;;16.43;;
19434;SDS011;9853;50.848;4.108;2022-11-14T14:40:30;29.73;;;17.13;;
19434;SDS011;9853;50.848;4.108;2022-11-14T14:43:04;29.60;;;16.83;;
19434;SDS011;9853;50.848;4.108;2022-11-14T14:45:50;26.57;;;15.87;;
19434;SDS011;9853;50.848;4.108;2022-11-14T14:48:14;23.77;;;15.43;;
19434;SDS011;9853;50.848;4.108;2022-11-14T14:50:41;28.67;;;15.40;;
19434;SDS011;9853;50.848;4.108;2022-11-14T14:53:25;28.40;;;15.47;;
19434;SDS011;9853;50.848;4.108;2022-11-14T14:56:17;26.03;;;15.40;;
19434;SDS011;9853;50.848;4.108;2022-11-14T14:58:40;26.80;;;15.20;;
19434;SDS011;9853;50.848;4.108;2022-11-14T15:01:05;25.80;;;14.47;;
19434;SDS011;9853;50.848;4.108;2022-11-14T15:04:10;21.40;;;13.97;;
19434;SDS011;9853;50.848;4.108;2022-11-14T15:06:36;23.53;;;14.30;;
19434;SDS011;9853;50.848;4.108;2022-11-14T15:09:07;22.80;;;13.63;;
19434;SDS011;9853;50.848;4.108;2022-11-14T15:11:28;26.67;;;13.87;;
19434;SDS011;9853;50.848;4.108;2022-11-14T15:13:52;26.07;;;14.57;;
19434;SDS011;9853;50.848;4.108;2022-11-14T15:16:14;29.63;;;15.20;;
19434;SDS011;9853;50.848;4.108;2022-11-14T15:18:48;28.83;;;15.83;;
19434;SDS011;9853;50.848;4.108;2022-11-14T15:21:36;24.90;;;14.60;;
19434;SDS011;9853;50.848;4.108;2022-11-14T15:26:44;24.00;;;14.40;;
19434;SDS011;9853;50.848;4.108;2022-11-14T15:29:24;25.63;;;14.53;;
19434;SDS011;9853;50.848;4.108;2022-11-14T15:37:57;23.90;;;13.53;;
19434;SDS011;9853;50.848;4.108;2022-11-14T15:40:27;24.63;;;13.33;;
19434;SDS011;9853;50.848;4.108;2022-11-14T15:42:55;20.53;;;12.70;;
19434;SDS011;9853;50.848;4.108;2022-11-14T15:45:27;21.20;;;13.00;;
19434;SDS011;9853;50.848;4.108;2022-11-14T15:47:58;19.27;;;11.70;;
19434;SDS011;9853;50.848;4.108;2022-11-14T15:52:46;18.37;;;11.80;;
19434;SDS011;9853;50.848;4.108;2022-11-14T15:58:20;19.00;;;11.90;;
19434;SDS011;9853;50.848;4.108;2022-11-14T16:00:52;21.93;;;12.10;;
19434;SDS011;9853;50.848;4.108;2022-11-14T16:03:17;24.83;;;12.20;;
19434;SDS011;9853;50.848;4.108;2022-11-14T16:05:44;21.53;;;12.47;;